sensor_id;sensor_type;location;lat;lon;timestamp;P1;durP1;ratioP1;P2;durP2;ratioP2
23782;SDS011;12071;50.850;4.446;2024-03-02T00:00:13;2.25;;;0.60;;
23782;SDS011;12071;50.850;4.446;2024-03-02T00:02:43;1.33;;;0.50;;
23782;SDS011;12071;50.850;4.446;2024-03-02T00:05:11;1.08;;;0.50;;
23782;SDS011;12071;50.850;4.446;2024-03-02T00:07:52;1.90;;;0.45;;
23782;SDS011;12071;50.850;4.446;2024-03-02T00:10:21;0.93;;;0.40;;
23782;SDS011;12071;50.850;4.446;2024-03-02T00:12:54;1.00;;;0.45;;
23782;SDS011;12071;50.850;4.446;2024-03-02T00:18:02;0.93;;;0.40;;
23782;SDS011;12071;50.850;4.446;2024-03-02T00:20:29;0.52;;;0.30;;
23782;SDS011;12071;50.850;4.446;2024-03-02T00:23:06;2.40;;;0.50;;
23782;SDS011;12071;50.850;4.446;2024-03-02T00:25:39;1.63;;;0.40;;
23782;SDS011;12071;50.850;4.446;2024-03-02T00:28:10;0.40;;;0.30;;
23782;SDS011;12071;50.850;4.446;2024-03-02T00:33:18;0.70;;;0.30;;
23782;SDS011;12071;50.850;4.446;2024-03-02T00:35:45;0.40;;;0.40;;
23782;SDS011;12071;50.850;4.446;2024-03-02T00:38:12;1.33;;;0.30;;
23782;SDS011;12071;50.850;4.446;2024-03-02T00:40:41;2.05;;;0.40;;
23782;SDS011;12071;50.850;4.446;2024-03-02T00:43:10;0.63;;;0.38;;
23782;SDS011;12071;50.850;4.446;2024-03-02T00:46:02;1.02;;;0.50;;
23782;SDS011;12071;50.850;4.446;2024-03-02T00:48:28;0.50;;;0.30;;
23782;SDS011;12071;50.850;4.446;2024-03-02T00:50:57;0.82;;;0.25;;
23782;SDS011;12071;50.850;4.446;2024-03-02T00:53:23;0.35;;;0.30;;
23782;SDS011;12071;50.850;4.446;2024-03-02T00:55:52;1.85;;;0.28;;
23782;SDS011;12071;50.850;4.446;2024-03-02T00:58:18;1.85;;;0.40;;
23782;SDS011;12071;50.850;4.446;2024-03-02T01:00:45;1.25;;;0.30;;
23782;SDS011;12071;50.850;4.446;2024-03-02T01:03:11;1.30;;;0.30;;
23782;SDS011;12071;50.850;4.446;2024-03-02T01:05:41;0.40;;;0.40;;
23782;SDS011;12071;50.850;4.446;2024-03-02T01:08:07;0.63;;;0.40;;
23782;SDS011;12071;50.850;4.446;2024-03-02T01:10:33;1.02;;;0.20;;
23782;SDS011;12071;50.850;4.446;2024-03-02T01:12:59;1.85;;;0.28;;
23782;SDS011;12071;50.850;4.446;2024-03-02T01:15:25;0.85;;;0.32;;
23782;SDS011;12071;50.850;4.446;2024-03-02T01:17:52;0.40;;;0.30;;
23782;SDS011;12071;50.850;4.446;2024-03-02T01:20:17;1.65;;;0.20;;
23782;SDS011;12071;50.850;4.446;2024-03-02T01:22:44;0.40;;;0.20;;
23782;SDS011;12071;50.850;4.446;2024-03-02T01:25:10;0.95;;;0.30;;
23782;SDS011;12071;50.850;4.446;2024-03-02T01:27:35;0.93;;;0.28;;
23782;SDS011;12071;50.850;4.446;2024-03-02T01:30:01;1.38;;;0.20;;
23782;SDS011;12071;50.850;4.446;2024-03-02T01:32:26;1.13;;;0.30;;
23782;SDS011;12071;50.850;4.446;2024-03-02T01:34:52;1.65;;;0.75;;
23782;SDS011;12071;50.850;4.446;2024-03-02T01:37:19;1.17;;;0.30;;
23782;SDS011;12071;50.850;4.446;2024-03-02T01:39:45;1.05;;;0.30;;
23782;SDS011;12071;50.850;4.446;2024-03-02T01:42:11;0.52;;;0.35;;
23782;SDS011;12071;50.850;4.446;2024-03-02T01:44:36;0.40;;;0.20;;
23782;SDS011;12071;50.850;4.446;2024-03-02T01:47:02;1.25;;;0.32;;
23782;SDS011;12071;50.850;4.446;2024-03-02T01:49:28;0.47;;;0.30;;
23782;SDS011;12071;50.850;4.446;2024-03-02T01:51:53;1.17;;;0.47;;
23782;SDS011;12071;50.850;4.446;2024-03-02T01:54:19;0.70;;;0.22;;
23782;SDS011;12071;50.850;4.446;2024-03-02T01:56:45;1.40;;;0.30;;
23782;SDS011;12071;50.850;4.446;2024-03-02T01:59:11;0.50;;;0.20;;
23782;SDS011;12071;50.850;4.446;2024-03-02T02:01:38;3.72;;;0.50;;
23782;SDS011;12071;50.850;4.446;2024-03-02T02:04:04;0.93;;;0.30;;
23782;SDS011;12071;50.850;4.446;2024-03-02T02:06:31;1.25;;;0.43;;
23782;SDS011;12071;50.850;4.446;2024-03-02T02:08:57;0.55;;;0.30;;
23782;SDS011;12071;50.850;4.446;2024-03-02T02:11:23;3.40;;;0.40;;
23782;SDS011;12071;50.850;4.446;2024-03-02T02:13:49;1.88;;;0.40;;
23782;SDS011;12071;50.850;4.446;2024-03-02T02:16:16;2.33;;;0.43;;
23782;SDS011;12071;50.850;4.446;2024-03-02T02:18:42;1.50;;;0.40;;
23782;SDS011;12071;50.850;4.446;2024-03-02T02:21:07;0.68;;;0.43;;
23782;SDS011;12071;50.850;4.446;2024-03-02T02:23:33;3.45;;;0.50;;
23782;SDS011;12071;50.850;4.446;2024-03-02T02:25:59;3.55;;;0.50;;
23782;SDS011;12071;50.850;4.446;2024-03-02T02:28:24;3.72;;;0.52;;
23782;SDS011;12071;50.850;4.446;2024-03-02T02:30:50;2.38;;;0.85;;
23782;SDS011;12071;50.850;4.446;2024-03-02T02:33:17;0.90;;;0.40;;
23782;SDS011;12071;50.850;4.446;2024-03-02T02:35:42;0.95;;;0.40;;
23782;SDS011;12071;50.850;4.446;2024-03-02T02:38:08;1.25;;;0.40;;
23782;SDS011;12071;50.850;4.446;2024-03-02T02:40:34;2.85;;;0.52;;
23782;SDS011;12071;50.850;4.446;2024-03-02T02:42:59;1.30;;;0.40;;
23782;SDS011;12071;50.850;4.446;2024-03-02T02:45:25;2.40;;;0.50;;
23782;SDS011;12071;50.850;4.446;2024-03-02T02:47:50;1.92;;;0.40;;
23782;SDS011;12071;50.850;4.446;2024-03-02T02:50:16;1.42;;;0.50;;
23782;SDS011;12071;50.850;4.446;2024-03-02T02:52:42;1.95;;;0.55;;
23782;SDS011;12071;50.850;4.446;2024-03-02T02:55:08;1.42;;;0.50;;
23782;SDS011;12071;50.850;4.446;2024-03-02T02:57:36;3.17;;;0.68;;
23782;SDS011;12071;50.850;4.446;2024-03-02T03:00:07;1.50;;;0.50;;
23782;SDS011;12071;50.850;4.446;2024-03-02T03:02:39;3.05;;;0.57;;
23782;SDS011;12071;50.850;4.446;2024-03-02T03:05:10;3.00;;;0.50;;
23782;SDS011;12071;50.850;4.446;2024-03-02T03:07:39;2.85;;;0.70;;
23782;SDS011;12071;50.850;4.446;2024-03-02T03:10:05;1.27;;;0.45;;
23782;SDS011;12071;50.850;4.446;2024-03-02T03:12:32;3.40;;;0.80;;
23782;SDS011;12071;50.850;4.446;2024-03-02T03:14:58;4.90;;;0.70;;
23782;SDS011;12071;50.850;4.446;2024-03-02T03:17:23;1.75;;;0.50;;
23782;SDS011;12071;50.850;4.446;2024-03-02T03:19:49;3.40;;;0.70;;
23782;SDS011;12071;50.850;4.446;2024-03-02T03:22:16;5.43;;;0.80;;
23782;SDS011;12071;50.850;4.446;2024-03-02T03:24:42;3.47;;;0.77;;
23782;SDS011;12071;50.850;4.446;2024-03-02T03:27:08;2.75;;;0.55;;
23782;SDS011;12071;50.850;4.446;2024-03-02T03:29:38;1.50;;;0.52;;
23782;SDS011;12071;50.850;4.446;2024-03-02T03:32:04;3.17;;;0.70;;
23782;SDS011;12071;50.850;4.446;2024-03-02T03:34:34;2.13;;;0.70;;
23782;SDS011;12071;50.850;4.446;2024-03-02T03:37:00;4.90;;;0.70;;
23782;SDS011;12071;50.850;4.446;2024-03-02T03:39:26;3.05;;;0.65;;
23782;SDS011;12071;50.850;4.446;2024-03-02T03:41:53;2.17;;;0.50;;
23782;SDS011;12071;50.850;4.446;2024-03-02T03:44:19;4.40;;;0.60;;
23782;SDS011;12071;50.850;4.446;2024-03-02T03:46:44;3.05;;;0.70;;
23782;SDS011;12071;50.850;4.446;2024-03-02T03:49:12;2.47;;;0.40;;
23782;SDS011;12071;50.850;4.446;2024-03-02T03:51:38;2.35;;;0.50;;
23782;SDS011;12071;50.850;4.446;2024-03-02T03:54:03;3.70;;;0.47;;
23782;SDS011;12071;50.850;4.446;2024-03-02T03:56:29;3.40;;;0.98;;
23782;SDS011;12071;50.850;4.446;2024-03-02T03:58:56;3.47;;;0.60;;
23782;SDS011;12071;50.850;4.446;2024-03-02T04:01:22;3.53;;;0.75;;
23782;SDS011;12071;50.850;4.446;2024-03-02T04:03:48;4.72;;;0.80;;
23782;SDS011;12071;50.850;4.446;2024-03-02T04:06:14;2.97;;;0.65;;
23782;SDS011;12071;50.850;4.446;2024-03-02T04:08:41;2.58;;;0.50;;
23782;SDS011;12071;50.850;4.446;2024-03-02T04:11:07;1.60;;;0.70;;
23782;SDS011;12071;50.850;4.446;2024-03-02T04:13:33;4.97;;;0.70;;
23782;SDS011;12071;50.850;4.446;2024-03-02T04:15:59;4.82;;;1.30;;
23782;SDS011;12071;50.850;4.446;2024-03-02T04:18:26;1.45;;;0.60;;
23782;SDS011;12071;50.850;4.446;2024-03-02T04:20:52;4.05;;;0.90;;
23782;SDS011;12071;50.850;4.446;2024-03-02T04:23:17;1.52;;;0.68;;
23782;SDS011;12071;50.850;4.446;2024-03-02T04:25:43;5.93;;;0.75;;
23782;SDS011;12071;50.850;4.446;2024-03-02T04:28:09;3.65;;;1.08;;
23782;SDS011;12071;50.850;4.446;2024-03-02T04:30:34;5.88;;;0.88;;
23782;SDS011;12071;50.850;4.446;2024-03-02T04:33:00;3.45;;;0.80;;
23782;SDS011;12071;50.850;4.446;2024-03-02T04:35:27;2.35;;;0.70;;
23782;SDS011;12071;50.850;4.446;2024-03-02T04:37:53;4.07;;;0.63;;
23782;SDS011;12071;50.850;4.446;2024-03-02T04:40:19;3.13;;;0.77;;
23782;SDS011;12071;50.850;4.446;2024-03-02T04:42:45;1.27;;;0.50;;
23782;SDS011;12071;50.850;4.446;2024-03-02T04:45:10;1.65;;;0.80;;
23782;SDS011;12071;50.850;4.446;2024-03-02T04:47:36;3.05;;;0.73;;
23782;SDS011;12071;50.850;4.446;2024-03-02T04:50:02;3.05;;;0.60;;
23782;SDS011;12071;50.850;4.446;2024-03-02T04:52:27;2.75;;;0.82;;
23782;SDS011;12071;50.850;4.446;2024-03-02T04:54:53;3.63;;;0.85;;
23782;SDS011;12071;50.850;4.446;2024-03-02T04:57:37;3.33;;;0.75;;
23782;SDS011;12071;50.850;4.446;2024-03-02T05:00:04;2.50;;;0.77;;
23782;SDS011;12071;50.850;4.446;2024-03-02T05:02:32;6.53;;;0.85;;
23782;SDS011;12071;50.850;4.446;2024-03-02T05:04:57;4.53;;;1.00;;
23782;SDS011;12071;50.850;4.446;2024-03-02T05:07:23;3.38;;;0.75;;
23782;SDS011;12071;50.850;4.446;2024-03-02T05:09:49;3.85;;;0.80;;
23782;SDS011;12071;50.850;4.446;2024-03-02T05:12:14;4.63;;;0.90;;
23782;SDS011;12071;50.850;4.446;2024-03-02T05:14:58;3.45;;;1.10;;
23782;SDS011;12071;50.850;4.446;2024-03-02T05:17:24;6.63;;;1.00;;
23782;SDS011;12071;50.850;4.446;2024-03-02T05:19:50;4.13;;;0.70;;
23782;SDS011;12071;50.850;4.446;2024-03-02T05:22:15;3.28;;;0.70;;
23782;SDS011;12071;50.850;4.446;2024-03-02T05:24:41;5.60;;;1.02;;
23782;SDS011;12071;50.850;4.446;2024-03-02T05:27:07;4.97;;;0.60;;
23782;SDS011;12071;50.850;4.446;2024-03-02T05:29:34;5.85;;;0.70;;
23782;SDS011;12071;50.850;4.446;2024-03-02T05:31:59;7.30;;;0.95;;
23782;SDS011;12071;50.850;4.446;2024-03-02T05:34:25;5.40;;;0.80;;
23782;SDS011;12071;50.850;4.446;2024-03-02T05:36:51;3.92;;;1.15;;
23782;SDS011;12071;50.850;4.446;2024-03-02T05:39:16;8.63;;;1.25;;
23782;SDS011;12071;50.850;4.446;2024-03-02T05:41:42;7.05;;;0.85;;
23782;SDS011;12071;50.850;4.446;2024-03-02T05:44:08;3.72;;;0.80;;
23782;SDS011;12071;50.850;4.446;2024-03-02T05:46:33;2.47;;;0.90;;
23782;SDS011;12071;50.850;4.446;2024-03-02T05:48:59;4.53;;;0.95;;
23782;SDS011;12071;50.850;4.446;2024-03-02T05:51:26;2.50;;;1.00;;
23782;SDS011;12071;50.850;4.446;2024-03-02T05:53:51;4.88;;;0.80;;
23782;SDS011;12071;50.850;4.446;2024-03-02T05:56:17;4.93;;;1.13;;
23782;SDS011;12071;50.850;4.446;2024-03-02T05:58:43;8.68;;;1.50;;
23782;SDS011;12071;50.850;4.446;2024-03-02T06:01:28;4.85;;;1.00;;
23782;SDS011;12071;50.850;4.446;2024-03-02T06:03:56;3.13;;;0.95;;
23782;SDS011;12071;50.850;4.446;2024-03-02T06:06:25;4.88;;;1.17;;
23782;SDS011;12071;50.850;4.446;2024-03-02T06:08:51;8.48;;;1.35;;
23782;SDS011;12071;50.850;4.446;2024-03-02T06:11:21;6.28;;;1.30;;
23782;SDS011;12071;50.850;4.446;2024-03-02T06:13:47;4.07;;;1.20;;
23782;SDS011;12071;50.850;4.446;2024-03-02T06:16:12;7.28;;;0.95;;
23782;SDS011;12071;50.850;4.446;2024-03-02T06:18:39;5.97;;;1.33;;
23782;SDS011;12071;50.850;4.446;2024-03-02T06:21:05;6.50;;;1.45;;
23782;SDS011;12071;50.850;4.446;2024-03-02T06:23:31;4.78;;;1.30;;
23782;SDS011;12071;50.850;4.446;2024-03-02T06:25:57;5.15;;;1.20;;
23782;SDS011;12071;50.850;4.446;2024-03-02T06:28:23;7.45;;;1.45;;
23782;SDS011;12071;50.850;4.446;2024-03-02T06:30:48;4.60;;;1.45;;
23782;SDS011;12071;50.850;4.446;2024-03-02T06:33:14;5.28;;;1.02;;
23782;SDS011;12071;50.850;4.446;2024-03-02T06:35:41;5.63;;;1.02;;
23782;SDS011;12071;50.850;4.446;2024-03-02T06:38:08;8.02;;;1.00;;
23782;SDS011;12071;50.850;4.446;2024-03-02T06:40:33;3.72;;;0.90;;
23782;SDS011;12071;50.850;4.446;2024-03-02T06:43:00;8.82;;;1.23;;
23782;SDS011;12071;50.850;4.446;2024-03-02T06:45:26;6.80;;;1.20;;
23782;SDS011;12071;50.850;4.446;2024-03-02T06:47:51;8.32;;;1.00;;
23782;SDS011;12071;50.850;4.446;2024-03-02T06:50:17;4.35;;;1.15;;
23782;SDS011;12071;50.850;4.446;2024-03-02T06:52:43;3.35;;;0.88;;
23782;SDS011;12071;50.850;4.446;2024-03-02T06:55:09;4.18;;;0.95;;
23782;SDS011;12071;50.850;4.446;2024-03-02T06:57:36;3.03;;;1.13;;
23782;SDS011;12071;50.850;4.446;2024-03-02T07:00:01;6.40;;;1.20;;
23782;SDS011;12071;50.850;4.446;2024-03-02T07:02:30;7.10;;;1.35;;
23782;SDS011;12071;50.850;4.446;2024-03-02T07:04:55;5.47;;;1.30;;
23782;SDS011;12071;50.850;4.446;2024-03-02T07:07:21;5.45;;;1.75;;
23782;SDS011;12071;50.850;4.446;2024-03-02T07:09:47;5.03;;;1.20;;
23782;SDS011;12071;50.850;4.446;2024-03-02T07:12:13;7.72;;;1.25;;
23782;SDS011;12071;50.850;4.446;2024-03-02T07:14:39;7.15;;;1.50;;
23782;SDS011;12071;50.850;4.446;2024-03-02T07:17:25;7.85;;;1.42;;
23782;SDS011;12071;50.850;4.446;2024-03-02T07:19:51;6.60;;;1.10;;
23782;SDS011;12071;50.850;4.446;2024-03-02T07:22:16;10.82;;;1.40;;
23782;SDS011;12071;50.850;4.446;2024-03-02T07:24:43;5.53;;;1.20;;
23782;SDS011;12071;50.850;4.446;2024-03-02T07:27:11;6.90;;;1.20;;
23782;SDS011;12071;50.850;4.446;2024-03-02T07:29:38;9.20;;;1.55;;
23782;SDS011;12071;50.850;4.446;2024-03-02T07:32:04;3.65;;;0.90;;
23782;SDS011;12071;50.850;4.446;2024-03-02T07:34:31;6.90;;;1.00;;
23782;SDS011;12071;50.850;4.446;2024-03-02T07:36:57;10.55;;;1.30;;
23782;SDS011;12071;50.850;4.446;2024-03-02T07:39:23;4.85;;;1.40;;
23782;SDS011;12071;50.850;4.446;2024-03-02T07:41:49;4.82;;;1.00;;
23782;SDS011;12071;50.850;4.446;2024-03-02T07:44:15;6.70;;;1.38;;
23782;SDS011;12071;50.850;4.446;2024-03-02T07:46:41;4.13;;;1.25;;
23782;SDS011;12071;50.850;4.446;2024-03-02T07:49:08;10.90;;;1.40;;
23782;SDS011;12071;50.850;4.446;2024-03-02T07:51:34;5.00;;;1.45;;
23782;SDS011;12071;50.850;4.446;2024-03-02T07:54:00;8.55;;;1.35;;
23782;SDS011;12071;50.850;4.446;2024-03-02T07:56:26;5.32;;;1.40;;
23782;SDS011;12071;50.850;4.446;2024-03-02T07:58:52;10.02;;;2.20;;
23782;SDS011;12071;50.850;4.446;2024-03-02T08:01:18;6.78;;;1.38;;
23782;SDS011;12071;50.850;4.446;2024-03-02T08:03:43;4.63;;;1.25;;
23782;SDS011;12071;50.850;4.446;2024-03-02T08:08:40;4.45;;;1.15;;
23782;SDS011;12071;50.850;4.446;2024-03-02T08:11:06;6.18;;;1.20;;
23782;SDS011;12071;50.850;4.446;2024-03-02T08:13:32;10.98;;;1.85;;
23782;SDS011;12071;50.850;4.446;2024-03-02T08:15:57;11.88;;;1.52;;
23782;SDS011;12071;50.850;4.446;2024-03-02T08:18:24;6.85;;;1.27;;
23782;SDS011;12071;50.850;4.446;2024-03-02T08:20:49;9.30;;;1.67;;
23782;SDS011;12071;50.850;4.446;2024-03-02T08:23:15;6.47;;;1.00;;
23782;SDS011;12071;50.850;4.446;2024-03-02T08:25:42;7.40;;;1.30;;
23782;SDS011;12071;50.850;4.446;2024-03-02T08:28:08;7.35;;;1.25;;
23782;SDS011;12071;50.850;4.446;2024-03-02T08:30:34;7.07;;;1.10;;
23782;SDS011;12071;50.850;4.446;2024-03-02T08:32:59;4.05;;;0.85;;
23782;SDS011;12071;50.850;4.446;2024-03-02T08:35:25;9.48;;;1.33;;
23782;SDS011;12071;50.850;4.446;2024-03-02T08:37:51;6.00;;;1.10;;
23782;SDS011;12071;50.850;4.446;2024-03-02T08:40:17;4.78;;;0.85;;
23782;SDS011;12071;50.850;4.446;2024-03-02T08:42:42;6.78;;;1.25;;
23782;SDS011;12071;50.850;4.446;2024-03-02T08:45:08;6.65;;;0.85;;
23782;SDS011;12071;50.850;4.446;2024-03-02T08:47:34;6.82;;;1.02;;
23782;SDS011;12071;50.850;4.446;2024-03-02T08:50:00;6.80;;;1.00;;
23782;SDS011;12071;50.850;4.446;2024-03-02T08:52:26;4.30;;;0.95;;
23782;SDS011;12071;50.850;4.446;2024-03-02T08:54:53;5.60;;;1.63;;
23782;SDS011;12071;50.850;4.446;2024-03-02T08:57:18;7.57;;;1.50;;
23782;SDS011;12071;50.850;4.446;2024-03-02T08:59:44;6.40;;;1.10;;
23782;SDS011;12071;50.850;4.446;2024-03-02T09:02:10;5.35;;;1.05;;
23782;SDS011;12071;50.850;4.446;2024-03-02T09:04:36;6.93;;;0.93;;
23782;SDS011;12071;50.850;4.446;2024-03-02T09:07:04;7.60;;;1.27;;
23782;SDS011;12071;50.850;4.446;2024-03-02T09:09:32;5.43;;;0.90;;
23782;SDS011;12071;50.850;4.446;2024-03-02T09:11:58;5.82;;;0.85;;
23782;SDS011;12071;50.850;4.446;2024-03-02T09:14:24;5.47;;;1.00;;
23782;SDS011;12071;50.850;4.446;2024-03-02T09:16:50;7.90;;;1.00;;
23782;SDS011;12071;50.850;4.446;2024-03-02T09:19:16;4.95;;;0.90;;
23782;SDS011;12071;50.850;4.446;2024-03-02T09:21:42;6.10;;;0.93;;
23782;SDS011;12071;50.850;4.446;2024-03-02T09:24:09;7.70;;;1.05;;
23782;SDS011;12071;50.850;4.446;2024-03-02T09:26:35;4.63;;;0.90;;
23782;SDS011;12071;50.850;4.446;2024-03-02T09:29:01;10.20;;;1.10;;
23782;SDS011;12071;50.850;4.446;2024-03-02T09:31:26;6.60;;;1.17;;
23782;SDS011;12071;50.850;4.446;2024-03-02T09:33:52;8.50;;;1.38;;
23782;SDS011;12071;50.850;4.446;2024-03-02T09:36:18;2.88;;;0.73;;
23782;SDS011;12071;50.850;4.446;2024-03-02T09:38:44;6.93;;;1.40;;
23782;SDS011;12071;50.850;4.446;2024-03-02T09:41:10;9.70;;;1.33;;
23782;SDS011;12071;50.850;4.446;2024-03-02T09:43:36;5.65;;;1.10;;
23782;SDS011;12071;50.850;4.446;2024-03-02T09:46:03;6.53;;;1.13;;
23782;SDS011;12071;50.850;4.446;2024-03-02T09:48:28;7.88;;;1.17;;
23782;SDS011;12071;50.850;4.446;2024-03-02T09:50:54;8.35;;;0.95;;
23782;SDS011;12071;50.850;4.446;2024-03-02T09:53:21;6.55;;;1.20;;
23782;SDS011;12071;50.850;4.446;2024-03-02T09:55:48;9.05;;;0.90;;
23782;SDS011;12071;50.850;4.446;2024-03-02T09:58:14;7.38;;;1.20;;
23782;SDS011;12071;50.850;4.446;2024-03-02T10:00:40;6.78;;;0.95;;
23782;SDS011;12071;50.850;4.446;2024-03-02T10:03:05;3.97;;;0.98;;
23782;SDS011;12071;50.850;4.446;2024-03-02T10:05:37;11.63;;;1.05;;
23782;SDS011;12071;50.850;4.446;2024-03-02T10:08:03;8.13;;;1.85;;
23782;SDS011;12071;50.850;4.446;2024-03-02T10:10:36;6.70;;;1.05;;
23782;SDS011;12071;50.850;4.446;2024-03-02T10:13:06;5.43;;;1.10;;
23782;SDS011;12071;50.850;4.446;2024-03-02T10:15:33;7.05;;;0.90;;
23782;SDS011;12071;50.850;4.446;2024-03-02T10:17:59;4.93;;;1.27;;
23782;SDS011;12071;50.850;4.446;2024-03-02T10:20:25;7.50;;;1.27;;
23782;SDS011;12071;50.850;4.446;2024-03-02T10:22:54;4.50;;;0.90;;
23782;SDS011;12071;50.850;4.446;2024-03-02T10:25:34;5.43;;;1.10;;
23782;SDS011;12071;50.850;4.446;2024-03-02T10:28:01;6.15;;;0.90;;
23782;SDS011;12071;50.850;4.446;2024-03-02T10:30:27;6.82;;;0.98;;
23782;SDS011;12071;50.850;4.446;2024-03-02T10:32:56;6.50;;;1.23;;
23782;SDS011;12071;50.850;4.446;2024-03-02T10:35:22;7.53;;;1.13;;
23782;SDS011;12071;50.850;4.446;2024-03-02T10:37:51;7.45;;;1.08;;
23782;SDS011;12071;50.850;4.446;2024-03-02T10:40:18;4.85;;;0.90;;
23782;SDS011;12071;50.850;4.446;2024-03-02T10:42:47;7.05;;;1.20;;
23782;SDS011;12071;50.850;4.446;2024-03-02T10:45:15;5.43;;;1.42;;
23782;SDS011;12071;50.850;4.446;2024-03-02T10:47:42;6.60;;;1.17;;
23782;SDS011;12071;50.850;4.446;2024-03-02T10:50:09;6.75;;;1.38;;
23782;SDS011;12071;50.850;4.446;2024-03-02T10:52:35;6.13;;;0.93;;
23782;SDS011;12071;50.850;4.446;2024-03-02T10:55:01;8.07;;;1.15;;
23782;SDS011;12071;50.850;4.446;2024-03-02T10:57:33;4.65;;;1.10;;
23782;SDS011;12071;50.850;4.446;2024-03-02T11:00:31;4.45;;;0.80;;
23782;SDS011;12071;50.850;4.446;2024-03-02T11:03:05;4.95;;;0.90;;
23782;SDS011;12071;50.850;4.446;2024-03-02T11:05:35;8.80;;;1.00;;
23782;SDS011;12071;50.850;4.446;2024-03-02T11:08:06;4.45;;;0.88;;
23782;SDS011;12071;50.850;4.446;2024-03-02T11:10:34;7.25;;;2.28;;
23782;SDS011;12071;50.850;4.446;2024-03-02T11:13:02;9.25;;;1.23;;
23782;SDS011;12071;50.850;4.446;2024-03-02T11:15:34;4.47;;;1.13;;
23782;SDS011;12071;50.850;4.446;2024-03-02T11:18:02;5.30;;;1.10;;
23782;SDS011;12071;50.850;4.446;2024-03-02T11:20:31;6.35;;;0.90;;
23782;SDS011;12071;50.850;4.446;2024-03-02T11:22:57;6.18;;;1.65;;
23782;SDS011;12071;50.850;4.446;2024-03-02T11:25:31;4.22;;;0.90;;
23782;SDS011;12071;50.850;4.446;2024-03-02T11:28:03;6.60;;;1.02;;
23782;SDS011;12071;50.850;4.446;2024-03-02T11:33:07;5.95;;;1.00;;
23782;SDS011;12071;50.850;4.446;2024-03-02T11:35:34;4.68;;;0.82;;
23782;SDS011;12071;50.850;4.446;2024-03-02T11:38:01;7.05;;;1.00;;
23782;SDS011;12071;50.850;4.446;2024-03-02T11:40:28;8.13;;;1.13;;
23782;SDS011;12071;50.850;4.446;2024-03-02T11:42:55;6.88;;;1.08;;
23782;SDS011;12071;50.850;4.446;2024-03-02T11:45:25;6.25;;;1.00;;
23782;SDS011;12071;50.850;4.446;2024-03-02T11:47:55;4.78;;;1.00;;
23782;SDS011;12071;50.850;4.446;2024-03-02T11:50:35;10.77;;;1.20;;
23782;SDS011;12071;50.850;4.446;2024-03-02T11:53:08;7.22;;;0.98;;
23782;SDS011;12071;50.850;4.446;2024-03-02T11:55:35;5.43;;;0.90;;
23782;SDS011;12071;50.850;4.446;2024-03-02T11:58:01;6.28;;;1.00;;
23782;SDS011;12071;50.850;4.446;2024-03-02T12:00:28;6.35;;;1.10;;
23782;SDS011;12071;50.850;4.446;2024-03-02T12:03:01;5.85;;;0.90;;
23782;SDS011;12071;50.850;4.446;2024-03-02T12:05:31;8.05;;;1.73;;
23782;SDS011;12071;50.850;4.446;2024-03-02T12:07:58;5.32;;;1.05;;
23782;SDS011;12071;50.850;4.446;2024-03-02T12:10:31;5.10;;;1.13;;
23782;SDS011;12071;50.850;4.446;2024-03-02T12:12:58;4.65;;;1.05;;
23782;SDS011;12071;50.850;4.446;2024-03-02T12:15:25;5.70;;;0.82;;
23782;SDS011;12071;50.850;4.446;2024-03-02T12:17:55;6.07;;;1.15;;
23782;SDS011;12071;50.850;4.446;2024-03-02T12:20:26;2.75;;;1.00;;
23782;SDS011;12071;50.850;4.446;2024-03-02T12:22:55;6.32;;;0.70;;
23782;SDS011;12071;50.850;4.446;2024-03-02T12:25:23;3.35;;;0.52;;
23782;SDS011;12071;50.850;4.446;2024-03-02T12:27:52;5.30;;;0.90;;
23782;SDS011;12071;50.850;4.446;2024-03-02T12:30:20;4.00;;;0.73;;
23782;SDS011;12071;50.850;4.446;2024-03-02T12:32:46;5.72;;;1.50;;
23782;SDS011;12071;50.850;4.446;2024-03-02T12:35:12;3.72;;;0.80;;
23782;SDS011;12071;50.850;4.446;2024-03-02T12:37:44;5.22;;;0.75;;
23782;SDS011;12071;50.850;4.446;2024-03-02T12:40:11;3.40;;;0.95;;
23782;SDS011;12071;50.850;4.446;2024-03-02T12:42:38;5.57;;;1.10;;
23782;SDS011;12071;50.850;4.446;2024-03-02T12:45:06;3.35;;;0.77;;
23782;SDS011;12071;50.850;4.446;2024-03-02T12:47:32;4.50;;;0.57;;
23782;SDS011;12071;50.850;4.446;2024-03-02T12:49:59;3.95;;;0.75;;
23782;SDS011;12071;50.850;4.446;2024-03-02T12:52:25;2.65;;;0.60;;
23782;SDS011;12071;50.850;4.446;2024-03-02T12:54:52;2.00;;;0.82;;
23782;SDS011;12071;50.850;4.446;2024-03-02T12:57:24;3.28;;;0.90;;
23782;SDS011;12071;50.850;4.446;2024-03-02T12:59:58;5.32;;;0.57;;
23782;SDS011;12071;50.850;4.446;2024-03-02T13:02:27;3.72;;;0.50;;
23782;SDS011;12071;50.850;4.446;2024-03-02T13:04:57;5.07;;;0.73;;
23782;SDS011;12071;50.850;4.446;2024-03-02T13:07:24;2.72;;;0.80;;
23782;SDS011;12071;50.850;4.446;2024-03-02T13:09:51;2.47;;;0.85;;
23782;SDS011;12071;50.850;4.446;2024-03-02T13:12:19;2.85;;;0.80;;
23782;SDS011;12071;50.850;4.446;2024-03-02T13:14:48;6.00;;;0.73;;
23782;SDS011;12071;50.850;4.446;2024-03-02T13:17:15;3.50;;;0.63;;
23782;SDS011;12071;50.850;4.446;2024-03-02T13:20:00;2.00;;;0.57;;
23782;SDS011;12071;50.850;4.446;2024-03-02T13:22:25;5.47;;;0.80;;
23782;SDS011;12071;50.850;4.446;2024-03-02T13:24:52;2.55;;;0.75;;
23782;SDS011;12071;50.850;4.446;2024-03-02T13:27:19;3.78;;;0.70;;
23782;SDS011;12071;50.850;4.446;2024-03-02T13:29:48;2.30;;;0.77;;
23782;SDS011;12071;50.850;4.446;2024-03-02T13:32:17;4.47;;;0.90;;
23782;SDS011;12071;50.850;4.446;2024-03-02T13:34:45;1.52;;;0.50;;
23782;SDS011;12071;50.850;4.446;2024-03-02T13:37:12;3.60;;;0.80;;
23782;SDS011;12071;50.850;4.446;2024-03-02T13:39:38;3.33;;;0.70;;
23782;SDS011;12071;50.850;4.446;2024-03-02T13:42:08;3.22;;;0.88;;
23782;SDS011;12071;50.850;4.446;2024-03-02T13:44:35;3.80;;;0.70;;
23782;SDS011;12071;50.850;4.446;2024-03-02T13:47:01;2.20;;;0.73;;
23782;SDS011;12071;50.850;4.446;2024-03-02T13:49:26;1.58;;;0.43;;
23782;SDS011;12071;50.850;4.446;2024-03-02T13:54:41;4.40;;;0.90;;
23782;SDS011;12071;50.850;4.446;2024-03-02T13:57:08;3.30;;;0.70;;
23782;SDS011;12071;50.850;4.446;2024-03-02T13:59:35;2.28;;;0.88;;
23782;SDS011;12071;50.850;4.446;2024-03-02T14:02:01;2.35;;;0.63;;
23782;SDS011;12071;50.850;4.446;2024-03-02T14:04:29;3.35;;;0.73;;
23782;SDS011;12071;50.850;4.446;2024-03-02T14:06:56;2.92;;;0.70;;
23782;SDS011;12071;50.850;4.446;2024-03-02T14:09:22;1.73;;;0.60;;
23782;SDS011;12071;50.850;4.446;2024-03-02T14:11:49;4.25;;;0.70;;
23782;SDS011;12071;50.850;4.446;2024-03-02T14:14:16;2.78;;;1.00;;
23782;SDS011;12071;50.850;4.446;2024-03-02T14:16:45;2.80;;;0.65;;
23782;SDS011;12071;50.850;4.446;2024-03-02T14:19:11;5.85;;;1.02;;
23782;SDS011;12071;50.850;4.446;2024-03-02T14:21:37;2.08;;;0.80;;
23782;SDS011;12071;50.850;4.446;2024-03-02T14:24:03;3.95;;;0.60;;
23782;SDS011;12071;50.850;4.446;2024-03-02T14:26:29;3.78;;;0.65;;
23782;SDS011;12071;50.850;4.446;2024-03-02T14:28:55;2.63;;;0.90;;
23782;SDS011;12071;50.850;4.446;2024-03-02T14:31:21;2.72;;;0.70;;
23782;SDS011;12071;50.850;4.446;2024-03-02T14:33:47;2.10;;;0.55;;
23782;SDS011;12071;50.850;4.446;2024-03-02T14:36:12;1.55;;;0.75;;
23782;SDS011;12071;50.850;4.446;2024-03-02T14:38:38;2.50;;;0.60;;
23782;SDS011;12071;50.850;4.446;2024-03-02T14:41:04;4.55;;;1.27;;
23782;SDS011;12071;50.850;4.446;2024-03-02T14:43:30;3.47;;;0.55;;
23782;SDS011;12071;50.850;4.446;2024-03-02T14:45:56;3.53;;;0.73;;
23782;SDS011;12071;50.850;4.446;2024-03-02T14:48:23;2.47;;;0.50;;
23782;SDS011;12071;50.850;4.446;2024-03-02T14:50:49;2.60;;;0.50;;
23782;SDS011;12071;50.850;4.446;2024-03-02T14:53:15;2.95;;;0.70;;
23782;SDS011;12071;50.850;4.446;2024-03-02T14:55:40;1.88;;;0.50;;
23782;SDS011;12071;50.850;4.446;2024-03-02T14:58:06;1.30;;;0.55;;
23782;SDS011;12071;50.850;4.446;2024-03-02T15:00:33;2.30;;;0.70;;